sensor_id;sensor_type;location;lat;lon;timestamp;temperature;humidity
810;DHT22;387;48.772;9.186;2023-03-23T00:00:59;15.00;57.70
810;DHT22;387;48.772;9.186;2023-03-23T00:03:26;15.00;58.00
810;DHT22;387;48.772;9.186;2023-03-23T00:05:54;15.00;58.50
810;DHT22;387;48.772;9.186;2023-03-23T00:08:25;14.90;58.80
810;DHT22;387;48.772;9.186;2023-03-23T00:10:51;14.80;59.30
810;DHT22;387;48.772;9.186;2023-03-23T00:13:26;14.60;59.90
810;DHT22;387;48.772;9.186;2023-03-23T00:15:52;14.60;60.30
810;DHT22;387;48.772;9.186;2023-03-23T00:18:21;14.50;60.60
810;DHT22;387;48.772;9.186;2023-03-23T00:20:52;14.50;60.30
810;DHT22;387;48.772;9.186;2023-03-23T00:23:19;14.50;60.60
810;DHT22;387;48.772;9.186;2023-03-23T00:25:46;14.50;60.60
810;DHT22;387;48.772;9.186;2023-03-23T00:28:12;14.50;59.90
810;DHT22;387;48.772;9.186;2023-03-23T00:30:38;14.60;59.50
810;DHT22;387;48.772;9.186;2023-03-23T00:33:04;14.60;59.10
810;DHT22;387;48.772;9.186;2023-03-23T00:35:30;14.70;58.90
810;DHT22;387;48.772;9.186;2023-03-23T00:37:56;14.80;58.70
810;DHT22;387;48.772;9.186;2023-03-23T00:40:24;14.90;58.50
810;DHT22;387;48.772;9.186;2023-03-23T00:42:49;14.90;58.40
810;DHT22;387;48.772;9.186;2023-03-23T00:45:15;14.80;58.50
810;DHT22;387;48.772;9.186;2023-03-23T00:47:41;14.90;58.40
810;DHT22;387;48.772;9.186;2023-03-23T00:50:12;14.90;58.10
810;DHT22;387;48.772;9.186;2023-03-23T00:52:40;14.90;58.10
810;DHT22;387;48.772;9.186;2023-03-23T00:55:06;14.90;58.40
810;DHT22;387;48.772;9.186;2023-03-23T00:57:32;14.90;58.10
810;DHT22;387;48.772;9.186;2023-03-23T00:59:58;14.90;58.10
810;DHT22;387;48.772;9.186;2023-03-23T01:02:23;15.00;58.20
810;DHT22;387;48.772;9.186;2023-03-23T01:04:52;15.00;58.10
810;DHT22;387;48.772;9.186;2023-03-23T01:07:21;15.00;58.00
810;DHT22;387;48.772;9.186;2023-03-23T01:09:49;15.00;58.00
810;DHT22;387;48.772;9.186;2023-03-23T01:12:14;15.00;57.80
810;DHT22;387;48.772;9.186;2023-03-23T01:14:41;15.00;57.70
810;DHT22;387;48.772;9.186;2023-03-23T01:17:07;15.00;57.60
810;DHT22;387;48.772;9.186;2023-03-23T01:19:32;15.00;57.70
810;DHT22;387;48.772;9.186;2023-03-23T01:21:58;14.90;57.80
810;DHT22;387;48.772;9.186;2023-03-23T01:24:23;14.90;57.80
810;DHT22;387;48.772;9.186;2023-03-23T01:26:49;14.90;57.80
810;DHT22;387;48.772;9.186;2023-03-23T01:29:15;14.80;58.10
810;DHT22;387;48.772;9.186;2023-03-23T01:31:40;14.90;57.80
810;DHT22;387;48.772;9.186;2023-03-23T01:34:08;14.90;57.40
810;DHT22;387;48.772;9.186;2023-03-23T01:36:35;14.90;57.20
810;DHT22;387;48.772;9.186;2023-03-23T01:39:03;15.00;57.30
810;DHT22;387;48.772;9.186;2023-03-23T01:41:30;15.00;57.40
810;DHT22;387;48.772;9.186;2023-03-23T01:44:04;14.90;57.60
810;DHT22;387;48.772;9.186;2023-03-23T01:46:32;15.00;57.70
810;DHT22;387;48.772;9.186;2023-03-23T01:49:01;14.90;57.80
810;DHT22;387;48.772;9.186;2023-03-23T01:51:31;14.80;58.10
810;DHT22;387;48.772;9.186;2023-03-23T01:54:01;14.70;58.40
810;DHT22;387;48.772;9.186;2023-03-23T01:56:32;14.70;58.50
810;DHT22;387;48.772;9.186;2023-03-23T01:59:03;14.60;58.90
810;DHT22;387;48.772;9.186;2023-03-23T02:01:29;14.50;58.90
810;DHT22;387;48.772;9.186;2023-03-23T02:03:56;14.50;59.10
810;DHT22;387;48.772;9.186;2023-03-23T02:06:23;14.60;58.90
810;DHT22;387;48.772;9.186;2023-03-23T02:08:51;14.60;58.90
810;DHT22;387;48.772;9.186;2023-03-23T02:11:19;14.50;59.20
810;DHT22;387;48.772;9.186;2023-03-23T02:13:46;14.50;59.30
810;DHT22;387;48.772;9.186;2023-03-23T02:16:21;14.50;59.30
810;DHT22;387;48.772;9.186;2023-03-23T02:19:21;14.40;59.50
810;DHT22;387;48.772;9.186;2023-03-23T02:27:55;14.40;59.60
810;DHT22;387;48.772;9.186;2023-03-23T02:39:31;14.30;60.60
810;DHT22;387;48.772;9.186;2023-03-23T02:42:04;14.40;60.70
810;DHT22;387;48.772;9.186;2023-03-23T02:44:31;14.40;60.90
810;DHT22;387;48.772;9.186;2023-03-23T02:46:59;14.40;61.00
810;DHT22;387;48.772;9.186;2023-03-23T02:49:28;14.40;60.90
810;DHT22;387;48.772;9.186;2023-03-23T02:51:57;14.40;61.00
810;DHT22;387;48.772;9.186;2023-03-23T02:54:24;14.40;61.20
810;DHT22;387;48.772;9.186;2023-03-23T02:56:53;14.40;61.20
810;DHT22;387;48.772;9.186;2023-03-23T02:59:20;14.40;61.20
810;DHT22;387;48.772;9.186;2023-03-23T03:01:54;14.40;61.50
810;DHT22;387;48.772;9.186;2023-03-23T03:04:22;14.40;61.20
810;DHT22;387;48.772;9.186;2023-03-23T03:09:59;14.50;61.00
810;DHT22;387;48.772;9.186;2023-03-23T03:12:46;14.50;61.70
810;DHT22;387;48.772;9.186;2023-03-23T03:15:29;14.40;61.90
810;DHT22;387;48.772;9.186;2023-03-23T03:18:14;14.50;62.00
810;DHT22;387;48.772;9.186;2023-03-23T03:20:47;14.50;61.50
810;DHT22;387;48.772;9.186;2023-03-23T03:23:15;14.40;61.60
810;DHT22;387;48.772;9.186;2023-03-23T03:25:42;14.50;61.60
810;DHT22;387;48.772;9.186;2023-03-23T03:28:16;14.40;61.70
810;DHT22;387;48.772;9.186;2023-03-23T03:30:49;14.40;62.00
810;DHT22;387;48.772;9.186;2023-03-23T03:33:17;14.30;62.20
810;DHT22;387;48.772;9.186;2023-03-23T03:35:46;14.30;62.30
810;DHT22;387;48.772;9.186;2023-03-23T03:38:12;14.20;62.50
810;DHT22;387;48.772;9.186;2023-03-23T03:40:38;14.20;62.90
810;DHT22;387;48.772;9.186;2023-03-23T03:43:04;14.20;62.80
810;DHT22;387;48.772;9.186;2023-03-23T03:45:31;14.20;62.80
810;DHT22;387;48.772;9.186;2023-03-23T03:47:57;14.20;62.90
810;DHT22;387;48.772;9.186;2023-03-23T03:50:22;14.20;62.90
810;DHT22;387;48.772;9.186;2023-03-23T03:52:48;14.20;62.90
810;DHT22;387;48.772;9.186;2023-03-23T03:55:14;14.20;62.90
810;DHT22;387;48.772;9.186;2023-03-23T03:57:42;14.20;62.90
810;DHT22;387;48.772;9.186;2023-03-23T04:00:08;14.20;62.90
810;DHT22;387;48.772;9.186;2023-03-23T04:02:49;14.20;63.10
810;DHT22;387;48.772;9.186;2023-03-23T04:05:23;14.20;63.20
810;DHT22;387;48.772;9.186;2023-03-23T04:07:50;14.30;62.90
810;DHT22;387;48.772;9.186;2023-03-23T04:10:17;14.40;62.80
810;DHT22;387;48.772;9.186;2023-03-23T04:12:45;14.30;62.80
810;DHT22;387;48.772;9.186;2023-03-23T04:15:10;14.30;62.90
810;DHT22;387;48.772;9.186;2023-03-23T04:17:36;14.30;63.10
810;DHT22;387;48.772;9.186;2023-03-23T04:20:02;14.40;63.20
810;DHT22;387;48.772;9.186;2023-03-23T04:22:37;14.40;63.10
810;DHT22;387;48.772;9.186;2023-03-23T04:25:03;14.20;63.20
810;DHT22;387;48.772;9.186;2023-03-23T04:27:32;14.20;63.40
810;DHT22;387;48.772;9.186;2023-03-23T04:29:58;14.20;63.40
810;DHT22;387;48.772;9.186;2023-03-23T04:32:25;14.30;63.40
810;DHT22;387;48.772;9.186;2023-03-23T04:34:58;14.30;63.40
810;DHT22;387;48.772;9.186;2023-03-23T04:37:25;14.20;63.50
810;DHT22;387;48.772;9.186;2023-03-23T04:39:52;14.30;63.40
810;DHT22;387;48.772;9.186;2023-03-23T04:42:27;14.30;63.40
810;DHT22;387;48.772;9.186;2023-03-23T04:44:52;14.30;63.40
810;DHT22;387;48.772;9.186;2023-03-23T04:47:19;14.40;62.90
810;DHT22;387;48.772;9.186;2023-03-23T04:49:45;14.50;62.20
810;DHT22;387;48.772;9.186;2023-03-23T04:52:11;14.50;61.90
810;DHT22;387;48.772;9.186;2023-03-23T04:54:37;14.70;61.30
810;DHT22;387;48.772;9.186;2023-03-23T04:57:03;14.80;61.00
810;DHT22;387;48.772;9.186;2023-03-23T04:59:28;14.90;60.90
810;DHT22;387;48.772;9.186;2023-03-23T05:01:56;14.90;60.70
810;DHT22;387;48.772;9.186;2023-03-23T05:04:22;14.90;60.40
810;DHT22;387;48.772;9.186;2023-03-23T05:06:51;14.90;60.70
810;DHT22;387;48.772;9.186;2023-03-23T05:09:16;14.90;60.70
810;DHT22;387;48.772;9.186;2023-03-23T05:11:42;14.90;60.70
810;DHT22;387;48.772;9.186;2023-03-23T05:14:08;14.90;60.70
810;DHT22;387;48.772;9.186;2023-03-23T05:16:35;15.00;60.70
810;DHT22;387;48.772;9.186;2023-03-23T05:19:02;15.00;60.70
810;DHT22;387;48.772;9.186;2023-03-23T05:21:27;15.00;60.70
810;DHT22;387;48.772;9.186;2023-03-23T05:23:53;15.00;60.70
810;DHT22;387;48.772;9.186;2023-03-23T05:26:20;15.00;60.40
810;DHT22;387;48.772;9.186;2023-03-23T05:28:46;14.90;60.70
810;DHT22;387;48.772;9.186;2023-03-23T05:31:13;15.00;60.40
810;DHT22;387;48.772;9.186;2023-03-23T05:33:39;15.00;60.40
810;DHT22;387;48.772;9.186;2023-03-23T05:36:05;15.00;60.70
810;DHT22;387;48.772;9.186;2023-03-23T05:38:32;15.00;60.70
810;DHT22;387;48.772;9.186;2023-03-23T05:40:59;15.00;60.40
810;DHT22;387;48.772;9.186;2023-03-23T05:43:26;15.10;60.30
810;DHT22;387;48.772;9.186;2023-03-23T05:45:52;15.00;60.10
810;DHT22;387;48.772;9.186;2023-03-23T05:48:18;15.10;60.10
810;DHT22;387;48.772;9.186;2023-03-23T05:50:44;15.10;60.10
810;DHT22;387;48.772;9.186;2023-03-23T05:53:09;15.10;60.10
810;DHT22;387;48.772;9.186;2023-03-23T05:55:35;15.20;60.00
810;DHT22;387;48.772;9.186;2023-03-23T05:58:01;15.20;60.00
810;DHT22;387;48.772;9.186;2023-03-23T06:00:29;15.20;59.70
810;DHT22;387;48.772;9.186;2023-03-23T06:03:02;15.20;59.90
810;DHT22;387;48.772;9.186;2023-03-23T06:12:12;15.30;59.90
810;DHT22;387;48.772;9.186;2023-03-23T06:14:38;15.30;60.00
810;DHT22;387;48.772;9.186;2023-03-23T06:17:04;15.30;59.90
810;DHT22;387;48.772;9.186;2023-03-23T06:19:30;15.30;59.90
810;DHT22;387;48.772;9.186;2023-03-23T06:21:55;15.30;60.00
810;DHT22;387;48.772;9.186;2023-03-23T06:24:21;15.40;59.70
810;DHT22;387;48.772;9.186;2023-03-23T06:26:47;15.30;59.70
810;DHT22;387;48.772;9.186;2023-03-23T06:29:13;15.30;60.00
810;DHT22;387;48.772;9.186;2023-03-23T06:31:50;15.30;59.90
810;DHT22;387;48.772;9.186;2023-03-23T06:34:16;15.40;59.90
810;DHT22;387;48.772;9.186;2023-03-23T06:36:42;15.40;59.90
810;DHT22;387;48.772;9.186;2023-03-23T06:39:10;15.30;59.90
810;DHT22;387;48.772;9.186;2023-03-23T06:41:35;15.30;60.00
810;DHT22;387;48.772;9.186;2023-03-23T06:44:01;15.30;59.90
810;DHT22;387;48.772;9.186;2023-03-23T06:46:27;15.30;60.00
810;DHT22;387;48.772;9.186;2023-03-23T06:48:54;15.30;60.10
810;DHT22;387;48.772;9.186;2023-03-23T06:51:20;15.30;60.30
810;DHT22;387;48.772;9.186;2023-03-23T06:53:46;15.30;60.10
810;DHT22;387;48.772;9.186;2023-03-23T06:56:12;15.40;60.00
810;DHT22;387;48.772;9.186;2023-03-23T06:58:39;15.50;59.70
810;DHT22;387;48.772;9.186;2023-03-23T07:01:05;15.60;59.30
810;DHT22;387;48.772;9.186;2023-03-23T07:03:31;15.70;59.20
810;DHT22;387;48.772;9.186;2023-03-23T07:05:57;15.80;58.90
810;DHT22;387;48.772;9.186;2023-03-23T07:08:23;15.80;59.10
810;DHT22;387;48.772;9.186;2023-03-23T07:10:53;15.80;59.30
810;DHT22;387;48.772;9.186;2023-03-23T07:13:19;15.80;59.30
810;DHT22;387;48.772;9.186;2023-03-23T07:15:45;15.80;59.30
810;DHT22;387;48.772;9.186;2023-03-23T07:18:11;15.90;59.50
810;DHT22;387;48.772;9.186;2023-03-23T07:20:37;15.90;59.30
810;DHT22;387;48.772;9.186;2023-03-23T07:23:03;15.90;59.30
810;DHT22;387;48.772;9.186;2023-03-23T07:25:34;15.90;59.60
810;DHT22;387;48.772;9.186;2023-03-23T07:28:01;15.80;59.90
810;DHT22;387;48.772;9.186;2023-03-23T07:30:28;15.80;59.90
810;DHT22;387;48.772;9.186;2023-03-23T07:32:56;15.80;59.90
810;DHT22;387;48.772;9.186;2023-03-23T07:35:23;15.80;59.90
810;DHT22;387;48.772;9.186;2023-03-23T07:37:50;15.80;59.90
810;DHT22;387;48.772;9.186;2023-03-23T07:40:17;15.80;60.00
810;DHT22;387;48.772;9.186;2023-03-23T07:42:45;15.80;60.10
810;DHT22;387;48.772;9.186;2023-03-23T07:45:12;15.90;60.10
810;DHT22;387;48.772;9.186;2023-03-23T07:47:39;15.90;60.10
810;DHT22;387;48.772;9.186;2023-03-23T07:50:06;16.00;60.00
810;DHT22;387;48.772;9.186;2023-03-23T07:52:33;15.90;59.70
810;DHT22;387;48.772;9.186;2023-03-23T07:54:59;16.00;59.90
810;DHT22;387;48.772;9.186;2023-03-23T07:57:26;16.20;59.50
810;DHT22;387;48.772;9.186;2023-03-23T07:59:52;16.30;59.10
810;DHT22;387;48.772;9.186;2023-03-23T08:02:18;16.40;58.90
810;DHT22;387;48.772;9.186;2023-03-23T08:04:44;16.40;59.10
810;DHT22;387;48.772;9.186;2023-03-23T08:07:10;16.40;58.90
810;DHT22;387;48.772;9.186;2023-03-23T08:09:38;16.30;59.60
810;DHT22;387;48.772;9.186;2023-03-23T08:12:04;16.20;60.30
810;DHT22;387;48.772;9.186;2023-03-23T08:14:30;16.20;60.30
810;DHT22;387;48.772;9.186;2023-03-23T08:16:56;16.10;61.20
810;DHT22;387;48.772;9.186;2023-03-23T08:19:22;16.10;61.30
810;DHT22;387;48.772;9.186;2023-03-23T08:21:48;16.30;61.20
810;DHT22;387;48.772;9.186;2023-03-23T08:24:15;16.40;60.90
810;DHT22;387;48.772;9.186;2023-03-23T08:26:40;16.30;61.20
810;DHT22;387;48.772;9.186;2023-03-23T08:29:07;16.40;61.50
810;DHT22;387;48.772;9.186;2023-03-23T08:31:33;16.50;61.30
810;DHT22;387;48.772;9.186;2023-03-23T08:34:04;16.50;61.60
810;DHT22;387;48.772;9.186;2023-03-23T08:36:34;16.40;62.20
810;DHT22;387;48.772;9.186;2023-03-23T08:39:00;16.40;62.50
810;DHT22;387;48.772;9.186;2023-03-23T08:41:26;16.40;62.60
810;DHT22;387;48.772;9.186;2023-03-23T08:43:51;16.40;62.90
810;DHT22;387;48.772;9.186;2023-03-23T08:46:20;16.30;63.40
810;DHT22;387;48.772;9.186;2023-03-23T08:48:46;16.20;63.90
810;DHT22;387;48.772;9.186;2023-03-23T08:51:12;16.00;64.80
810;DHT22;387;48.772;9.186;2023-03-23T08:53:39;15.90;65.60
810;DHT22;387;48.772;9.186;2023-03-23T08:56:10;15.80;65.80
810;DHT22;387;48.772;9.186;2023-03-23T08:58:36;15.80;66.10
810;DHT22;387;48.772;9.186;2023-03-23T09:01:03;15.80;66.00
810;DHT22;387;48.772;9.186;2023-03-23T09:03:32;15.70;66.40
810;DHT22;387;48.772;9.186;2023-03-23T09:05:59;15.80;66.30
810;DHT22;387;48.772;9.186;2023-03-23T09:08:26;15.80;66.30
810;DHT22;387;48.772;9.186;2023-03-23T09:11:01;15.90;66.10
810;DHT22;387;48.772;9.186;2023-03-23T09:13:28;15.90;66.10
810;DHT22;387;48.772;9.186;2023-03-23T09:15:53;15.90;66.10
810;DHT22;387;48.772;9.186;2023-03-23T09:18:19;16.10;65.60
810;DHT22;387;48.772;9.186;2023-03-23T09:20:46;16.30;65.10
810;DHT22;387;48.772;9.186;2023-03-23T09:23:14;16.30;64.80
810;DHT22;387;48.772;9.186;2023-03-23T09:25:40;16.20;64.80
810;DHT22;387;48.772;9.186;2023-03-23T09:28:06;16.40;64.50
810;DHT22;387;48.772;9.186;2023-03-23T09:30:33;16.50;64.10
810;DHT22;387;48.772;9.186;2023-03-23T09:33:01;16.50;63.90
810;DHT22;387;48.772;9.186;2023-03-23T09:35:28;16.50;64.20
810;DHT22;387;48.772;9.186;2023-03-23T09:37:54;16.60;63.80
810;DHT22;387;48.772;9.186;2023-03-23T09:40:25;16.60;63.70
810;DHT22;387;48.772;9.186;2023-03-23T09:43:25;16.60;63.70
810;DHT22;387;48.772;9.186;2023-03-23T09:48:38;16.50;63.70
810;DHT22;387;48.772;9.186;2023-03-23T09:53:54;16.40;63.90
810;DHT22;387;48.772;9.186;2023-03-23T09:56:21;16.50;63.70
810;DHT22;387;48.772;9.186;2023-03-23T09:58:55;16.50;63.80
810;DHT22;387;48.772;9.186;2023-03-23T10:01:35;16.50;64.10
810;DHT22;387;48.772;9.186;2023-03-23T10:04:24;16.60;64.10
810;DHT22;387;48.772;9.186;2023-03-23T10:06:51;16.80;63.40
810;DHT22;387;48.772;9.186;2023-03-23T10:09:18;16.90;63.20
810;DHT22;387;48.772;9.186;2023-03-23T10:12:07;16.80;63.70
810;DHT22;387;48.772;9.186;2023-03-23T10:14:49;17.00;63.40
810;DHT22;387;48.772;9.186;2023-03-23T10:20:05;17.30;62.50
810;DHT22;387;48.772;9.186;2023-03-23T10:22:40;17.40;61.90
810;DHT22;387;48.772;9.186;2023-03-23T10:30:40;17.20;62.30
810;DHT22;387;48.772;9.186;2023-03-23T10:38:19;17.10;62.80
810;DHT22;387;48.772;9.186;2023-03-23T10:40:56;17.00;63.40
810;DHT22;387;48.772;9.186;2023-03-23T10:43:23;16.90;63.70
810;DHT22;387;48.772;9.186;2023-03-23T10:45:57;16.70;64.40
810;DHT22;387;48.772;9.186;2023-03-23T10:48:30;16.70;64.80
810;DHT22;387;48.772;9.186;2023-03-23T10:51:00;16.90;64.70
810;DHT22;387;48.772;9.186;2023-03-23T10:53:28;17.00;63.90
810;DHT22;387;48.772;9.186;2023-03-23T10:55:55;17.10;63.90
810;DHT22;387;48.772;9.186;2023-03-23T10:58:24;17.20;63.40
810;DHT22;387;48.772;9.186;2023-03-23T11:00:51;17.20;63.20
810;DHT22;387;48.772;9.186;2023-03-23T11:05:45;17.50;62.80
810;DHT22;387;48.772;9.186;2023-03-23T11:08:24;17.40;63.10
810;DHT22;387;48.772;9.186;2023-03-23T11:11:07;17.40;62.90
810;DHT22;387;48.772;9.186;2023-03-23T11:13:33;17.20;63.40
810;DHT22;387;48.772;9.186;2023-03-23T11:15:59;17.20;63.50
810;DHT22;387;48.772;9.186;2023-03-23T11:18:37;17.30;63.10
810;DHT22;387;48.772;9.186;2023-03-23T11:21:05;17.00;63.70
810;DHT22;387;48.772;9.186;2023-03-23T11:23:35;17.00;63.90
810;DHT22;387;48.772;9.186;2023-03-23T11:29:17;17.00;64.10
810;DHT22;387;48.772;9.186;2023-03-23T11:34:30;17.10;65.60
810;DHT22;387;48.772;9.186;2023-03-23T11:37:02;17.30;64.10
810;DHT22;387;48.772;9.186;2023-03-23T11:39:32;17.50;63.80
810;DHT22;387;48.772;9.186;2023-03-23T11:42:00;17.60;63.40
810;DHT22;387;48.772;9.186;2023-03-23T11:44:43;17.70;62.90
810;DHT22;387;48.772;9.186;2023-03-23T11:47:32;17.70;63.10
810;DHT22;387;48.772;9.186;2023-03-23T11:50:27;17.70;63.10
810;DHT22;387;48.772;9.186;2023-03-23T11:55:26;17.90;62.30
810;DHT22;387;48.772;9.186;2023-03-23T11:57:55;18.00;62.00
810;DHT22;387;48.772;9.186;2023-03-23T12:00:23;17.90;61.50
810;DHT22;387;48.772;9.186;2023-03-23T12:03:09;18.00;61.60
810;DHT22;387;48.772;9.186;2023-03-23T12:05:57;18.20;60.70
810;DHT22;387;48.772;9.186;2023-03-23T12:11:27;18.30;58.90
810;DHT22;387;48.772;9.186;2023-03-23T12:14:19;18.40;59.20
810;DHT22;387;48.772;9.186;2023-03-23T12:16:57;18.40;57.30
810;DHT22;387;48.772;9.186;2023-03-23T12:25:08;17.80;58.70
810;DHT22;387;48.772;9.186;2023-03-23T12:36:03;18.20;57.80
810;DHT22;387;48.772;9.186;2023-03-23T12:41:48;17.90;58.20
810;DHT22;387;48.772;9.186;2023-03-23T12:44:16;17.90;58.70
810;DHT22;387;48.772;9.186;2023-03-23T12:52:06;18.00;58.90
810;DHT22;387;48.772;9.186;2023-03-23T12:57:15;18.40;57.80
810;DHT22;387;48.772;9.186;2023-03-23T13:07:53;18.00;59.20
810;DHT22;387;48.772;9.186;2023-03-23T13:10:26;17.90;59.70
810;DHT22;387;48.772;9.186;2023-03-23T13:12:55;17.90;59.70
810;DHT22;387;48.772;9.186;2023-03-23T13:18:38;18.00;59.70
810;DHT22;387;48.772;9.186;2023-03-23T13:21:14;18.00;59.60
810;DHT22;387;48.772;9.186;2023-03-23T13:23:49;18.10;59.20
810;DHT22;387;48.772;9.186;2023-03-23T13:26:21;18.30;59.20
810;DHT22;387;48.772;9.186;2023-03-23T13:29:11;18.30;59.20
810;DHT22;387;48.772;9.186;2023-03-23T13:31:39;18.40;59.10
810;DHT22;387;48.772;9.186;2023-03-23T13:36:53;18.80;58.40
810;DHT22;387;48.772;9.186;2023-03-23T13:39:29;18.70;58.00
810;DHT22;387;48.772;9.186;2023-03-23T13:47:34;18.60;57.70
810;DHT22;387;48.772;9.186;2023-03-23T13:50:11;18.60;57.00
810;DHT22;387;48.772;9.186;2023-03-23T14:05:37;18.20;58.00
810;DHT22;387;48.772;9.186;2023-03-23T14:10:42;18.30;58.00
810;DHT22;387;48.772;9.186;2023-03-23T14:13:23;18.20;58.00
810;DHT22;387;48.772;9.186;2023-03-23T14:16:15;18.30;58.00
810;DHT22;387;48.772;9.186;2023-03-23T14:18:42;18.40;57.80
810;DHT22;387;48.772;9.186;2023-03-23T14:21:21;18.30;57.70
810;DHT22;387;48.772;9.186;2023-03-23T14:23:46;18.30;56.90
810;DHT22;387;48.772;9.186;2023-03-23T14:26:17;18.30;56.80
810;DHT22;387;48.772;9.186;2023-03-23T14:28:45;18.20;57.00
810;DHT22;387;48.772;9.186;2023-03-23T14:31:24;18.20;57.20
810;DHT22;387;48.772;9.186;2023-03-23T14:33:52;18.30;56.60
810;DHT22;387;48.772;9.186;2023-03-23T14:36:26;18.30;56.50
810;DHT22;387;48.772;9.186;2023-03-23T14:39:04;18.30;56.10
810;DHT22;387;48.772;9.186;2023-03-23T14:41:31;18.40;56.10
810;DHT22;387;48.772;9.186;2023-03-23T14:44:00;18.30;56.20
810;DHT22;387;48.772;9.186;2023-03-23T14:46:26;18.40;56.10
810;DHT22;387;48.772;9.186;2023-03-23T14:48:52;18.50;56.10
810;DHT22;387;48.772;9.186;2023-03-23T14:51:20;18.70;55.60
810;DHT22;387;48.772;9.186;2023-03-23T14:53:46;18.60;55.70
810;DHT22;387;48.772;9.186;2023-03-23T14:56:18;18.50;55.00
810;DHT22;387;48.772;9.186;2023-03-23T14:58:49;18.40;55.40
810;DHT22;387;48.772;9.186;2023-03-23T15:01:36;18.30;56.00
810;DHT22;387;48.772;9.186;2023-03-23T15:04:22;18.40;55.40
810;DHT22;387;48.772;9.186;2023-03-23T15:07:02;18.30;55.70
810;DHT22;387;48.772;9.186;2023-03-23T15:09:28;18.40;55.70
810;DHT22;387;48.772;9.186;2023-03-23T15:12:01;18.40;55.00
810;DHT22;387;48.772;9.186;2023-03-23T15:14:44;18.40;54.80
810;DHT22;387;48.772;9.186;2023-03-23T15:17:18;18.30;55.20
810;DHT22;387;48.772;9.186;2023-03-23T15:19:45;18.30;55.00
810;DHT22;387;48.772;9.186;2023-03-23T15:22:23;18.30;55.00
810;DHT22;387;48.772;9.186;2023-03-23T15:24:50;18.40;54.50
810;DHT22;387;48.772;9.186;2023-03-23T15:27:29;18.30;54.40
810;DHT22;387;48.772;9.186;2023-03-23T15:29:56;18.30;54.00
810;DHT22;387;48.772;9.186;2023-03-23T15:32:31;18.30;54.20
810;DHT22;387;48.772;9.186;2023-03-23T15:34:58;18.30;54.10
810;DHT22;387;48.772;9.186;2023-03-23T15:37:30;18.30;54.20
810;DHT22;387;48.772;9.186;2023-03-23T15:39:58;18.20;54.40
810;DHT22;387;48.772;9.186;2023-03-23T15:42:34;18.30;54.40
810;DHT22;387;48.772;9.186;2023-03-23T15:45:26;18.20;54.10
810;DHT22;387;48.772;9.186;2023-03-23T15:47:52;18.10;54.20
810;DHT22;387;48.772;9.186;2023-03-23T15:50:20;18.10;54.20
810;DHT22;387;48.772;9.186;2023-03-23T15:52:57;18.00;54.50
810;DHT22;387;48.772;9.186;2023-03-23T15:55:38;18.00;54.60
810;DHT22;387;48.772;9.186;2023-03-23T15:58:11;18.00;54.80
810;DHT22;387;48.772;9.186;2023-03-23T16:00:38;18.00;55.00
810;DHT22;387;48.772;9.186;2023-03-23T16:03:06;18.00;55.30
810;DHT22;387;48.772;9.186;2023-03-23T16:05:33;18.00;55.20
810;DHT22;387;48.772;9.186;2023-03-23T16:07:59;17.90;55.20
810;DHT22;387;48.772;9.186;2023-03-23T16:10:27;17.90;55.30
810;DHT22;387;48.772;9.186;2023-03-23T16:12:52;17.80;55.40
810;DHT22;387;48.772;9.186;2023-03-23T16:15:18;17.80;55.60
810;DHT22;387;48.772;9.186;2023-03-23T16:17:44;17.70;55.60
810;DHT22;387;48.772;9.186;2023-03-23T16:20:18;17.70;55.70
810;DHT22;387;48.772;9.186;2023-03-23T16:22:44;17.70;55.80
810;DHT22;387;48.772;9.186;2023-03-23T16:25:10;17.70;55.80
810;DHT22;387;48.772;9.186;2023-03-23T16:27:38;17.70;55.80
810;DHT22;387;48.772;9.186;2023-03-23T16:30:32;17.60;56.10
810;DHT22;387;48.772;9.186;2023-03-23T16:32:58;17.50;56.40
810;DHT22;387;48.772;9.186;2023-03-23T16:35:24;17.50;56.40
810;DHT22;387;48.772;9.186;2023-03-23T16:37:51;17.40;56.50
810;DHT22;387;48.772;9.186;2023-03-23T16:40:18;17.50;56.60
810;DHT22;387;48.772;9.186;2023-03-23T16:42:44;17.40;56.60
810;DHT22;387;48.772;9.186;2023-03-23T16:45:10;17.40;56.60
810;DHT22;387;48.772;9.186;2023-03-23T16:47:37;17.30;56.90
810;DHT22;387;48.772;9.186;2023-03-23T16:50:05;17.30;57.00
810;DHT22;387;48.772;9.186;2023-03-23T16:52:31;17.30;57.30
810;DHT22;387;48.772;9.186;2023-03-23T16:54:57;17.30;57.40
810;DHT22;387;48.772;9.186;2023-03-23T16:57:23;17.30;57.70
810;DHT22;387;48.772;9.186;2023-03-23T16:59:48;17.30;57.70
810;DHT22;387;48.772;9.186;2023-03-23T17:02:14;17.20;57.70
810;DHT22;387;48.772;9.186;2023-03-23T17:04:44;17.20;57.80
810;DHT22;387;48.772;9.186;2023-03-23T17:07:11;17.20;58.00
810;DHT22;387;48.772;9.186;2023-03-23T17:09:37;17.20;58.10
810;DHT22;387;48.772;9.186;2023-03-23T17:12:03;17.20;58.20
810;DHT22;387;48.772;9.186;2023-03-23T17:14:29;17.20;58.20
810;DHT22;387;48.772;9.186;2023-03-23T17:16:55;17.10;58.50
810;DHT22;387;48.772;9.186;2023-03-23T17:19:21;17.10;58.70
810;DHT22;387;48.772;9.186;2023-03-23T17:21:47;17.10;58.80
810;DHT22;387;48.772;9.186;2023-03-23T17:24:12;17.10;58.80
810;DHT22;387;48.772;9.186;2023-03-23T17:26:38;17.10;59.10
810;DHT22;387;48.772;9.186;2023-03-23T17:29:04;17.10;59.20
810;DHT22;387;48.772;9.186;2023-03-23T17:31:29;17.00;59.30
810;DHT22;387;48.772;9.186;2023-03-23T17:33:55;17.00;59.60
810;DHT22;387;48.772;9.186;2023-03-23T17:36:22;17.00;59.60
810;DHT22;387;48.772;9.186;2023-03-23T17:38:48;16.90;59.70
810;DHT22;387;48.772;9.186;2023-03-23T17:41:14;16.90;60.00
810;DHT22;387;48.772;9.186;2023-03-23T17:43:40;16.90;60.10
810;DHT22;387;48.772;9.186;2023-03-23T17:46:08;16.90;60.30
810;DHT22;387;48.772;9.186;2023-03-23T17:48:34;16.90;60.40
810;DHT22;387;48.772;9.186;2023-03-23T17:51:00;16.90;60.40
810;DHT22;387;48.772;9.186;2023-03-23T17:53:28;16.90;60.60
810;DHT22;387;48.772;9.186;2023-03-23T17:55:54;16.90;60.60
810;DHT22;387;48.772;9.186;2023-03-23T17:58:21;16.90;60.70
810;DHT22;387;48.772;9.186;2023-03-23T18:00:46;16.80;61.00
810;DHT22;387;48.772;9.186;2023-03-23T18:03:12;16.90;61.00
810;DHT22;387;48.772;9.186;2023-03-23T18:05:38;16.80;61.00
810;DHT22;387;48.772;9.186;2023-03-23T18:08:07;16.80;61.30
810;DHT22;387;48.772;9.186;2023-03-23T18:10:35;16.80;61.50
810;DHT22;387;48.772;9.186;2023-03-23T18:13:02;16.70;61.50
810;DHT22;387;48.772;9.186;2023-03-23T18:15:28;16.70;61.70
810;DHT22;387;48.772;9.186;2023-03-23T18:17:54;16.70;61.90
810;DHT22;387;48.772;9.186;2023-03-23T18:20:20;16.60;62.00
810;DHT22;387;48.772;9.186;2023-03-23T18:22:46;16.60;61.90
810;DHT22;387;48.772;9.186;2023-03-23T18:25:12;16.60;62.20
810;DHT22;387;48.772;9.186;2023-03-23T18:27:38;16.70;62.00
810;DHT22;387;48.772;9.186;2023-03-23T18:30:06;16.60;62.00
810;DHT22;387;48.772;9.186;2023-03-23T18:32:35;16.60;62.20
810;DHT22;387;48.772;9.186;2023-03-23T18:35:01;16.60;62.30
810;DHT22;387;48.772;9.186;2023-03-23T18:37:26;16.60;62.30
810;DHT22;387;48.772;9.186;2023-03-23T18:39:52;16.60;62.50
810;DHT22;387;48.772;9.186;2023-03-23T18:42:18;16.60;62.50
810;DHT22;387;48.772;9.186;2023-03-23T18:44:44;16.60;62.60